FNF214 ENBO-ENTC

Flight info

Callsign FNF214
Flight time N/A
Altitude 41000
Route PENNO DCT ATWEG
Aircraft LJ35/M-SGHRWXY/SB1

Departure

Time 2026-04-28 17:18
Airport Bodø Airport (ENBO)

Arrival

Time N/A
Airport Tromsø Airport (ENTC)
Time Latitude Longitude Altitude Speed Heading
2026-04-28 17:13 67.26973 14.34831 30 ft 0 kts 176°
2026-04-28 17:14 67.26957 14.34834 30 ft 5 kts 176°
2026-04-28 17:15 67.26924 14.34893 31 ft 8 kts 92°
2026-04-28 17:15 67.26939 14.35068 31 ft 13 kts 77°
2026-04-28 17:15 67.26956 14.35295 32 ft 0 kts 76°
2026-04-28 17:15 67.26957 14.35304 32 ft 2 kts 77°
2026-04-28 17:16 67.26968 14.35424 32 ft 11 kts 77°
2026-04-28 17:16 67.26989 14.35686 33 ft 18 kts 79°
2026-04-28 17:16 67.27018 14.36052 34 ft 23 kts 79°
2026-04-28 17:16 67.27025 14.36453 35 ft 19 kts 148°
2026-04-28 17:17 67.26913 14.36427 34 ft 10 kts 268°
2026-04-28 17:17 67.26910 14.36382 34 ft 2 kts 258°
2026-04-28 17:17 67.26894 14.36194 33 ft 41 kts 258°
2026-04-28 17:17 67.26730 14.34264 127 ft 169 kts 257°
2026-04-28 17:18 67.26526 14.30459 863 ft 252 kts 268°
2026-04-28 17:18 67.26345 14.25617 2274 ft 295 kts 260°
2026-04-28 17:18 67.25878 14.20076 2583 ft 311 kts 256°
2026-04-28 17:18 67.25394 14.14833 2573 ft 290 kts 259°
2026-04-28 17:19 67.25503 14.09824 2569 ft 275 kts 286°
2026-04-28 17:19 67.26506 14.05640 2765 ft 291 kts 317°
2026-04-28 17:19 67.28178 14.02745 4699 ft 299 kts 335°
2026-04-28 17:19 67.30231 14.01672 6755 ft 307 kts
2026-04-28 17:20 67.32313 14.02937 8834 ft 311 kts 25°
2026-04-28 17:20 67.33531 14.05027 10233 ft 313 kts 41°
2026-04-28 17:20 67.35356 14.10907 12691 ft 323 kts 56°
2026-04-28 17:20 67.36639 14.15805 14393 ft 333 kts 54°
2026-04-28 17:21 67.38093 14.20588 16032 ft 342 kts 49°
2026-04-28 17:21 67.39709 14.25232 17592 ft 351 kts 47°
2026-04-28 17:21 67.41337 14.30070 19056 ft 360 kts 50°